createdAt,value
2022-09-24T00:01:38.951Z,93.78
2022-09-24T00:04:09.754Z,93.62
2022-09-24T00:06:43.202Z,93.66
2022-09-24T00:09:15.191Z,93.53
2022-09-24T00:11:44.063Z,93.37
2022-09-24T00:14:11.943Z,93.40
2022-09-24T00:16:40.441Z,93.53
2022-09-24T00:19:07.655Z,93.56
2022-09-24T00:21:37.392Z,93.30
2022-09-24T00:24:41.503Z,93.19
2022-09-24T00:27:08.685Z,93.23
2022-09-24T00:29:36.037Z,93.24
2022-09-24T00:32:05.339Z,93.22
2022-09-24T00:34:33.048Z,93.23
2022-09-24T00:37:00.044Z,93.26
2022-09-24T00:39:27.080Z,93.23
2022-09-24T00:41:54.842Z,93.08
2022-09-24T00:44:40.830Z,93.26
2022-09-24T00:47:32.208Z,93.04
2022-09-24T00:50:06.402Z,92.83
2022-09-24T00:52:38.429Z,92.95
2022-09-24T00:55:06.200Z,92.81
2022-09-24T00:57:34.240Z,92.92
2022-09-24T01:00:01.385Z,92.78
2022-09-24T01:02:28.287Z,92.84
2022-09-24T01:04:56.599Z,92.85
2022-09-24T01:07:23.873Z,92.91
2022-09-24T01:09:50.772Z,92.69
2022-09-24T01:12:45.996Z,92.77
2022-09-24T01:15:40.445Z,92.88
2022-09-24T01:18:31.391Z,92.89
2022-09-24T01:21:25.563Z,92.64
2022-09-24T01:24:01.822Z,92.53
2022-09-24T01:26:57.840Z,92.57
2022-09-24T01:29:30.175Z,92.54
2022-09-24T01:32:05.327Z,92.58
2022-09-24T01:34:56.616Z,92.58
2022-09-24T01:37:26.594Z,92.94
2022-09-24T01:39:56.671Z,92.84
2022-09-24T01:42:25.708Z,92.80
2022-09-24T01:44:52.938Z,92.76
2022-09-24T01:47:40.384Z,92.87
2022-09-24T01:50:10.703Z,92.67
2022-09-24T01:53:02.901Z,92.61
2022-09-24T01:55:43.624Z,92.77
2022-09-24T01:58:16.966Z,92.68
2022-09-24T02:00:49.258Z,92.83
2022-09-24T02:03:23.400Z,92.64
2022-09-24T02:05:58.014Z,92.75
2022-09-24T02:08:33.284Z,93.03
2022-09-24T02:11:05.279Z,92.83
2022-09-24T02:13:46.763Z,93.00
2022-09-24T02:16:17.470Z,92.85
2022-09-24T02:18:48.194Z,92.72
2022-09-24T02:21:17.377Z,92.86
2022-09-24T02:23:51.473Z,92.83
2022-09-24T02:26:18.386Z,92.96
2022-09-24T02:28:46.486Z,92.86
2022-09-24T02:31:29.208Z,92.73
2022-09-24T02:34:19.219Z,92.77
2022-09-24T02:36:47.185Z,92.68
2022-09-24T02:39:14.448Z,92.70
2022-09-24T02:41:42.711Z,92.76
2022-09-24T02:44:09.580Z,92.93
2022-09-24T02:46:36.810Z,92.75
2022-09-24T02:49:03.624Z,93.04
2022-09-24T02:51:30.522Z,92.81
2022-09-24T02:53:57.937Z,92.77
2022-09-24T02:56:24.746Z,92.89
2022-09-24T02:58:51.634Z,92.89
2022-09-24T03:01:19.774Z,92.81
2022-09-24T03:03:47.119Z,92.72
2022-09-24T03:06:14.767Z,92.61
2022-09-24T03:08:43.354Z,92.63
2022-09-24T03:11:16.349Z,92.75
2022-09-24T03:13:45.772Z,92.51
2022-09-24T03:16:12.623Z,92.56
2022-09-24T03:18:39.623Z,92.78
2022-09-24T03:21:09.954Z,92.84
2022-09-24T03:23:37.079Z,92.63
2022-09-24T03:26:04.582Z,92.58
2022-09-24T03:28:32.282Z,92.65
2022-09-24T03:31:02.389Z,92.66
2022-09-24T03:33:42.542Z,92.66
2022-09-24T03:36:20.751Z,92.51
2022-09-24T03:38:49.022Z,92.71
2022-09-24T03:41:17.526Z,92.57
2022-09-24T03:43:44.685Z,92.47
2022-09-24T03:46:12.777Z,92.54
2022-09-24T03:48:41.208Z,92.45
2022-09-24T03:51:20.113Z,92.67
2022-09-24T03:53:48.326Z,92.42
2022-09-24T03:56:16.102Z,92.66
2022-09-24T03:58:47.688Z,92.62
2022-09-24T04:01:21.758Z,92.68
2022-09-24T04:03:50.469Z,92.69
2022-09-24T04:06:20.736Z,92.50
2022-09-24T04:08:51.176Z,92.63
2022-09-24T04:11:18.059Z,92.48
2022-09-24T04:13:44.991Z,92.60
2022-09-24T04:16:12.207Z,92.71
2022-09-24T04:18:39.725Z,92.62
2022-09-24T04:21:06.824Z,92.37
2022-09-24T04:23:34.086Z,92.27
2022-09-24T04:26:02.382Z,92.52
2022-09-24T04:28:30.223Z,92.29
2022-09-24T04:30:58.434Z,92.32
2022-09-24T04:33:25.857Z,92.28
2022-09-24T04:35:52.719Z,92.19
2022-09-24T04:38:21.402Z,92.07
2022-09-24T04:40:49.082Z,92.11
2022-09-24T04:43:16.171Z,92.15
2022-09-24T04:45:44.998Z,92.26
2022-09-24T04:48:12.097Z,92.19
2022-09-24T04:50:44.805Z,92.10
2022-09-24T04:53:12.974Z,91.96
2022-09-24T04:55:39.911Z,91.96
2022-09-24T04:58:06.698Z,92.09
2022-09-24T05:00:33.795Z,92.39
2022-09-24T05:03:05.094Z,92.24
2022-09-24T05:05:33.987Z,92.37
2022-09-24T05:08:02.191Z,92.01
2022-09-24T05:10:33.139Z,91.92
2022-09-24T05:13:00.986Z,92.04
2022-09-24T05:15:28.175Z,92.03
2022-09-24T05:17:55.049Z,91.87
2022-09-24T05:20:21.899Z,91.67
2022-09-24T05:22:50.415Z,91.75
2022-09-24T05:25:19.407Z,91.95
2022-09-24T05:27:52.938Z,91.59
2022-09-24T05:30:22.330Z,91.43
2022-09-24T05:32:52.028Z,91.47
2022-09-24T05:35:23.440Z,90.98
2022-09-24T05:37:53.430Z,90.72
2022-09-24T05:40:40.186Z,90.87
2022-09-24T05:43:07.528Z,90.68
2022-09-24T05:45:34.486Z,90.43
2022-09-24T05:48:01.484Z,90.02
2022-09-24T05:50:28.967Z,89.88
2022-09-24T05:52:56.286Z,89.61
2022-09-24T05:55:23.290Z,89.18
2022-09-24T05:57:50.587Z,88.91
2022-09-24T06:00:17.486Z,88.82
2022-09-24T06:02:44.732Z,88.39
2022-09-24T06:05:12.446Z,88.27
2022-09-24T06:07:39.763Z,88.22
2022-09-24T06:10:07.652Z,87.79
2022-09-24T06:12:35.018Z,87.57
2022-09-24T06:15:02.334Z,87.34
2022-09-24T06:17:29.523Z,87.32
2022-09-24T06:19:58.164Z,87.58
2022-09-24T06:22:28.354Z,87.41
2022-09-24T06:24:56.511Z,87.00
2022-09-24T06:27:23.485Z,87.34
2022-09-24T06:29:50.455Z,86.42
2022-09-24T06:32:19.848Z,86.01
2022-09-24T06:34:47.230Z,85.34
2022-09-24T06:37:14.160Z,84.85
2022-09-24T06:39:41.309Z,84.50
2022-09-24T06:42:08.455Z,84.20
2022-09-24T06:44:35.879Z,83.47
2022-09-24T06:47:03.712Z,83.56
2022-09-24T06:49:34.129Z,83.39
2022-09-24T06:52:02.016Z,83.64
2022-09-24T06:54:29.135Z,83.32
2022-09-24T06:56:56.309Z,82.80
2022-09-24T06:59:23.538Z,82.36
2022-09-24T07:01:51.121Z,82.37
2022-09-24T07:04:18.072Z,82.06
2022-09-24T07:07:03.384Z,82.25
2022-09-24T07:09:31.165Z,82.18
2022-09-24T07:12:04.890Z,82.87
2022-09-24T07:14:32.379Z,82.84
2022-09-24T07:16:59.551Z,81.77
2022-09-24T07:19:26.455Z,81.89
2022-09-24T07:21:53.605Z,82.23
2022-09-24T07:24:20.633Z,81.29
2022-09-24T07:26:47.640Z,81.42
2022-09-24T07:29:14.884Z,81.72
2022-09-24T07:31:41.991Z,80.52
2022-09-24T07:34:11.900Z,80.62
2022-09-24T07:36:39.371Z,79.53
2022-09-24T07:39:06.863Z,79.80
2022-09-24T07:41:38.624Z,79.97
2022-09-24T07:44:09.869Z,80.35
2022-09-24T07:46:37.009Z,79.84
2022-09-24T07:49:04.164Z,80.04
2022-09-24T07:51:32.190Z,79.21
2022-09-24T07:53:59.270Z,78.77
2022-09-24T07:56:26.377Z,79.33
2022-09-24T07:58:54.054Z,77.82
2022-09-24T08:01:21.344Z,78.51
2022-09-24T08:03:48.789Z,78.18
2022-09-24T08:06:15.853Z,77.06
2022-09-24T08:08:43.642Z,76.62
2022-09-24T08:11:17.303Z,76.19
2022-09-24T08:13:45.348Z,75.93
2022-09-24T08:16:13.082Z,75.95
2022-09-24T08:18:40.407Z,76.52
2022-09-24T08:21:10.941Z,75.45
2022-09-24T08:23:40.132Z,74.38
2022-09-24T08:26:07.551Z,74.32
2022-09-24T08:28:34.669Z,74.65
2022-09-24T08:31:04.944Z,74.75
2022-09-24T08:33:32.757Z,74.23
2022-09-24T08:36:01.105Z,74.32
2022-09-24T08:38:28.407Z,72.50
2022-09-24T08:41:26.038Z,71.88
2022-09-24T08:44:03.935Z,72.40
2022-09-24T08:47:08.615Z,72.01
2022-09-24T08:49:43.359Z,71.46
2022-09-24T08:52:19.987Z,71.40
2022-09-24T08:54:49.334Z,71.69
2022-09-24T08:57:21.139Z,71.74
2022-09-24T08:59:53.168Z,71.23
2022-09-24T09:02:29.495Z,71.15
2022-09-24T09:05:27.998Z,70.71
2022-09-24T09:07:55.041Z,71.09
2022-09-24T09:10:29.168Z,69.97
2022-09-24T09:13:20.293Z,69.78
2022-09-24T09:15:57.947Z,70.48
2022-09-24T09:18:37.626Z,69.69
2022-09-24T09:21:18.443Z,69.31
2022-09-24T09:23:50.286Z,69.48
2022-09-24T09:26:20.201Z,70.52
2022-09-24T09:28:48.605Z,69.28
2022-09-24T09:31:44.286Z,69.01
2022-09-24T09:34:29.803Z,69.06
2022-09-24T09:37:23.348Z,68.03
2022-09-24T09:40:11.913Z,68.86
2022-09-24T09:42:42.840Z,67.69
2022-09-24T09:45:30.064Z,67.50
2022-09-24T09:47:57.668Z,67.57
2022-09-24T09:50:29.418Z,65.83
2022-09-24T09:52:56.500Z,65.29
2022-09-24T09:55:31.352Z,65.93
2022-09-24T09:58:31.750Z,65.32
2022-09-24T10:01:09.007Z,64.52
2022-09-24T10:03:56.652Z,64.29
2022-09-24T10:06:29.332Z,64.60
2022-09-24T10:09:13.492Z,64.59
2022-09-24T10:11:42.221Z,64.09
2022-09-24T10:14:19.265Z,63.94
2022-09-24T10:16:51.429Z,64.57
2022-09-24T10:19:28.108Z,64.26
2022-09-24T10:21:57.658Z,64.22
2022-09-24T10:24:28.161Z,63.71
2022-09-24T10:26:55.305Z,63.20
2022-09-24T10:29:45.541Z,63.36
2022-09-24T10:32:18.850Z,62.75
2022-09-24T10:34:56.645Z,61.53
2022-09-24T10:37:24.414Z,62.34
2022-09-24T10:40:13.770Z,61.33
2022-09-24T10:42:41.349Z,62.02
2022-09-24T10:45:14.231Z,62.03
2022-09-24T10:47:57.726Z,61.96
2022-09-24T10:50:43.748Z,62.20
2022-09-24T10:53:31.717Z,60.19
2022-09-24T10:56:12.186Z,60.07
2022-09-24T10:59:00.627Z,60.45
2022-09-24T11:01:42.753Z,61.51
2022-09-24T11:04:28.384Z,61.63
2022-09-24T11:07:17.178Z,61.82
2022-09-24T11:10:31.131Z,62.18
2022-09-24T11:13:13.665Z,62.93
2022-09-24T11:16:16.404Z,63.28
2022-09-24T11:19:01.704Z,63.15
2022-09-24T11:21:38.374Z,63.30
2022-09-24T11:24:24.369Z,62.92
2022-09-24T11:27:13.603Z,62.98
2022-09-24T11:30:12.902Z,63.76
2022-09-24T11:33:15.666Z,63.78
2022-09-24T11:35:56.759Z,63.51
2022-09-24T11:38:57.536Z,63.69
2022-09-24T11:41:58.679Z,63.03
2022-09-24T11:45:03.425Z,62.57
2022-09-24T11:47:49.418Z,62.75
2022-09-24T11:50:25.627Z,62.32
2022-09-24T11:53:02.521Z,63.58
2022-09-24T11:56:02.222Z,63.21
2022-09-24T11:58:56.398Z,63.49
2022-09-24T12:01:30.288Z,66.03
2022-09-24T12:04:10.563Z,68.53
2022-09-24T12:06:52.515Z,70.16
2022-09-24T12:09:29.027Z,69.52
2022-09-24T12:12:04.248Z,68.87
2022-09-24T12:14:58.065Z,69.69
2022-09-24T12:17:53.182Z,69.91
2022-09-24T12:20:28.461Z,70.98
2022-09-24T12:23:11.538Z,71.98
2022-09-24T12:25:45.226Z,72.13
2022-09-24T12:28:15.266Z,72.28
2022-09-24T12:31:12.359Z,72.83
2022-09-24T12:33:45.763Z,73.63
2022-09-24T12:36:12.890Z,72.38
2022-09-24T12:38:47.979Z,72.60
2022-09-24T12:41:21.031Z,72.75
2022-09-24T12:43:51.400Z,72.69
2022-09-24T12:46:23.066Z,72.79
2022-09-24T12:48:52.047Z,71.99
2022-09-24T12:51:22.705Z,71.33
2022-09-24T12:54:32.854Z,67.93
2022-09-24T12:57:10.268Z,69.41
2022-09-24T13:00:00.267Z,68.87
2022-09-24T13:02:45.304Z,69.12
2022-09-24T13:05:27.326Z,68.75
2022-09-24T13:08:03.752Z,69.81
2022-09-24T13:10:35.807Z,70.63
2022-09-24T13:13:15.621Z,71.16
2022-09-24T13:15:43.039Z,72.02
2022-09-24T13:18:11.171Z,72.33
2022-09-24T13:20:43.779Z,73.23
2022-09-24T13:23:19.849Z,73.56
2022-09-24T13:25:57.824Z,73.08
2022-09-24T13:28:37.729Z,72.03
2022-09-24T13:31:11.650Z,71.10
2022-09-24T13:33:48.398Z,70.53
2022-09-24T13:36:20.110Z,70.53
2022-09-24T13:39:04.999Z,70.58
2022-09-24T13:41:59.572Z,70.21
2022-09-24T13:44:33.531Z,70.07
2022-09-24T13:47:12.361Z,70.09
2022-09-24T13:49:45.645Z,69.86
2022-09-24T13:52:36.087Z,69.49
2022-09-24T13:55:12.954Z,69.43
2022-09-24T13:57:47.936Z,68.67
2022-09-24T14:00:24.722Z,68.24
2022-09-24T14:03:20.908Z,68.38
2022-09-24T14:05:50.529Z,68.01
2022-09-24T14:08:22.091Z,66.69
2022-09-24T14:10:51.158Z,66.83
2022-09-24T14:13:22.704Z,66.42
2022-09-24T14:16:02.657Z,66.62
2022-09-24T14:18:30.395Z,65.59
2022-09-24T14:21:17.623Z,64.84
2022-09-24T14:23:48.432Z,65.44
2022-09-24T14:26:41.983Z,65.07
2022-09-24T14:29:23.877Z,65.70
2022-09-24T14:31:55.985Z,65.65
2022-09-24T14:34:26.684Z,65.43
2022-09-24T14:36:58.546Z,65.81
2022-09-24T14:39:29.640Z,66.22
2022-09-24T14:41:59.438Z,65.95
2022-09-24T14:44:29.875Z,67.48
2022-09-24T14:46:59.223Z,68.07
2022-09-24T14:49:44.903Z,69.10
2022-09-24T14:52:39.283Z,68.00
2022-09-24T14:55:18.026Z,68.82
2022-09-24T14:57:49.079Z,70.20
2022-09-24T15:00:30.834Z,71.31
2022-09-24T15:03:05.815Z,72.11
2022-09-24T15:05:33.388Z,74.22
2022-09-24T15:08:28.253Z,74.39
2022-09-24T15:10:56.425Z,74.33
2022-09-24T15:13:26.779Z,75.67
2022-09-24T15:16:15.853Z,77.24
2022-09-24T15:18:43.160Z,77.03
2022-09-24T15:21:13.044Z,77.31
2022-09-24T15:23:39.913Z,78.63
2022-09-24T15:26:07.262Z,78.22
2022-09-24T15:28:34.168Z,78.04
2022-09-24T15:31:01.266Z,78.47
2022-09-24T15:33:28.522Z,79.16
2022-09-24T15:35:55.386Z,78.24
2022-09-24T15:38:22.440Z,78.66
2022-09-24T15:40:51.632Z,78.68
2022-09-24T15:43:24.214Z,79.60
2022-09-24T15:45:52.189Z,78.83
2022-09-24T15:48:19.102Z,78.73
2022-09-24T15:50:47.097Z,78.82
2022-09-24T15:53:26.849Z,79.55
2022-09-24T15:56:00.911Z,79.83
2022-09-24T15:58:28.165Z,79.24
2022-09-24T16:00:55.341Z,80.11
2022-09-24T16:03:27.273Z,79.70
2022-09-24T16:05:54.984Z,79.92
2022-09-24T16:08:22.802Z,79.51
2022-09-24T16:10:50.138Z,80.15
2022-09-24T16:13:18.540Z,79.59
2022-09-24T16:15:46.182Z,80.40
2022-09-24T16:18:15.500Z,79.75
2022-09-24T16:20:44.855Z,79.12
2022-09-24T16:23:17.025Z,80.27
2022-09-24T16:25:58.094Z,78.77
2022-09-24T16:28:27.540Z,78.85
2022-09-24T16:30:54.884Z,78.91
2022-09-24T16:33:22.253Z,78.82
2022-09-24T16:35:49.539Z,78.86
2022-09-24T16:38:22.589Z,78.60
2022-09-24T16:40:59.819Z,79.01
2022-09-24T16:43:26.910Z,78.74
2022-09-24T16:45:54.139Z,78.74
2022-09-24T16:48:21.031Z,78.96
2022-09-24T16:50:49.561Z,78.39
2022-09-24T16:53:16.831Z,78.73
2022-09-24T16:55:43.654Z,78.61
2022-09-24T16:58:10.781Z,78.40
2022-09-24T17:00:42.657Z,78.44
2022-09-24T17:03:11.281Z,78.43
2022-09-24T17:05:40.749Z,78.45
2022-09-24T17:08:07.572Z,78.64
2022-09-24T17:10:34.432Z,79.01
2022-09-24T17:13:01.872Z,79.26
2022-09-24T17:15:28.850Z,79.54
2022-09-24T17:17:55.797Z,79.98
2022-09-24T17:20:23.008Z,79.61
2022-09-24T17:22:50.348Z,79.91
2022-09-24T17:25:17.321Z,79.90
2022-09-24T17:27:45.026Z,80.25
2022-09-24T17:30:12.311Z,79.73
2022-09-24T17:32:39.209Z,80.20
2022-09-24T17:35:08.092Z,79.44
2022-09-24T17:37:35.430Z,80.40
2022-09-24T17:40:04.245Z,80.56
2022-09-24T17:42:32.351Z,80.86
2022-09-24T17:44:59.193Z,80.76
2022-09-24T17:47:45.947Z,80.00
2022-09-24T17:50:13.312Z,80.33
2022-09-24T17:52:40.165Z,80.29
2022-09-24T17:55:08.394Z,80.08
2022-09-24T17:57:35.564Z,79.73
2022-09-24T18:00:02.725Z,79.63
2022-09-24T18:02:38.438Z,79.65
2022-09-24T18:05:07.464Z,79.99
2022-09-24T18:07:34.309Z,79.81
2022-09-24T18:10:01.178Z,79.82
2022-09-24T18:12:28.458Z,80.47
2022-09-24T18:14:55.346Z,80.02
2022-09-24T18:17:22.211Z,80.07
2022-09-24T18:19:49.537Z,80.08
2022-09-24T18:22:16.423Z,80.44
2022-09-24T18:24:44.565Z,80.30
2022-09-24T18:27:15.297Z,80.11
2022-09-24T18:29:44.450Z,80.07
2022-09-24T18:32:11.947Z,80.75
2022-09-24T18:34:38.771Z,79.81
2022-09-24T18:37:06.085Z,80.13
2022-09-24T18:39:33.316Z,80.00
2022-09-24T18:42:00.189Z,80.01
2022-09-24T18:44:27.167Z,80.60
2022-09-24T18:46:54.679Z,80.64
2022-09-24T18:49:21.718Z,79.90
2022-09-24T18:51:49.088Z,79.83
2022-09-24T18:54:18.278Z,79.50
2022-09-24T18:56:47.526Z,80.67
2022-09-24T18:59:17.546Z,79.92
2022-09-24T19:01:46.338Z,79.56
2022-09-24T19:04:14.400Z,79.74
2022-09-24T19:06:44.717Z,79.67
2022-09-24T19:09:13.929Z,79.23
2022-09-24T19:11:42.003Z,79.12
2022-09-24T19:14:11.427Z,80.20
2022-09-24T19:16:39.111Z,79.34
2022-09-24T19:19:06.033Z,79.37
2022-09-24T19:21:32.955Z,79.73
2022-09-24T19:24:00.468Z,79.92
2022-09-24T19:26:34.602Z,79.31
2022-09-24T19:29:02.830Z,80.04
2022-09-24T19:31:32.337Z,79.29
2022-09-24T19:34:03.115Z,79.23
2022-09-24T19:36:36.256Z,79.10
2022-09-24T19:39:05.877Z,79.54
2022-09-24T19:41:33.164Z,79.55
2022-09-24T19:44:04.588Z,79.60
2022-09-24T19:46:35.036Z,79.28
2022-09-24T19:49:01.949Z,79.37
2022-09-24T19:51:31.944Z,79.80
2022-09-24T19:54:02.426Z,79.77
2022-09-24T19:56:29.924Z,79.43
2022-09-24T19:58:59.513Z,80.05
2022-09-24T20:01:29.639Z,79.82
2022-09-24T20:03:58.312Z,80.17
2022-09-24T20:06:29.176Z,79.36
2022-09-24T20:08:57.413Z,79.49
2022-09-24T20:11:25.766Z,79.14
2022-09-24T20:13:54.427Z,79.00
2022-09-24T20:16:26.210Z,79.66
2022-09-24T20:18:59.473Z,78.99
2022-09-24T20:21:32.175Z,79.08
2022-09-24T20:23:59.507Z,78.87
2022-09-24T20:26:45.723Z,78.78
2022-09-24T20:29:13.954Z,79.91
2022-09-24T20:31:42.954Z,79.48
2022-09-24T20:34:10.009Z,79.29
2022-09-24T20:36:37.024Z,79.46
2022-09-24T20:39:04.337Z,79.44
2022-09-24T20:41:31.460Z,78.81
2022-09-24T20:43:58.386Z,78.73
2022-09-24T20:46:28.695Z,79.09
2022-09-24T20:49:00.934Z,79.02
2022-09-24T20:51:30.505Z,78.77
2022-09-24T20:53:58.938Z,79.02
2022-09-24T20:56:26.912Z,79.15
2022-09-24T20:58:54.241Z,80.00
2022-09-24T21:01:22.459Z,79.71
2022-09-24T21:03:50.322Z,79.67
2022-09-24T21:06:20.773Z,79.71
2022-09-24T21:08:47.650Z,79.82
2022-09-24T21:11:20.562Z,80.59
2022-09-24T21:13:50.818Z,80.00
2022-09-24T21:16:24.535Z,80.20
2022-09-24T21:18:55.937Z,80.58
2022-09-24T21:21:29.009Z,80.33
2022-09-24T21:23:59.205Z,80.59
2022-09-24T21:26:28.787Z,81.07
2022-09-24T21:28:59.627Z,80.94
2022-09-24T21:31:29.257Z,80.86
2022-09-24T21:33:57.170Z,80.99
2022-09-24T21:36:28.634Z,81.52
2022-09-24T21:39:00.562Z,81.74
2022-09-24T21:41:30.349Z,80.91
2022-09-24T21:43:57.975Z,81.07
2022-09-24T21:46:26.706Z,81.54
2022-09-24T21:48:55.089Z,81.34
2022-09-24T21:51:23.088Z,81.55
2022-09-24T21:53:55.277Z,81.74
2022-09-24T21:56:22.467Z,81.62
2022-09-24T21:58:50.513Z,82.19
2022-09-24T22:01:27.138Z,82.24
2022-09-24T22:03:56.079Z,82.08
2022-09-24T22:06:28.541Z,82.61
2022-09-24T22:08:58.103Z,82.37
2022-09-24T22:11:26.377Z,82.52
2022-09-24T22:13:54.396Z,81.93
2022-09-24T22:16:22.351Z,82.18
2022-09-24T22:18:49.334Z,82.35
2022-09-24T22:21:16.184Z,81.96
2022-09-24T22:23:43.441Z,82.51
2022-09-24T22:26:12.998Z,82.49
2022-09-24T22:28:40.922Z,82.58
2022-09-24T22:31:11.053Z,82.70
2022-09-24T22:33:56.962Z,82.79
2022-09-24T22:36:24.762Z,82.92
2022-09-24T22:38:52.831Z,82.80
2022-09-24T22:41:19.757Z,82.58
2022-09-24T22:43:46.865Z,82.93
2022-09-24T22:46:14.192Z,82.81
2022-09-24T22:48:41.043Z,82.92
2022-09-24T22:51:09.029Z,82.94
2022-09-24T22:53:38.145Z,83.23
2022-09-24T22:56:07.610Z,83.01
2022-09-24T22:58:36.204Z,82.99
2022-09-24T23:01:15.222Z,83.23
2022-09-24T23:03:44.300Z,83.33
2022-09-24T23:06:12.067Z,83.55
2022-09-24T23:08:40.807Z,83.26
2022-09-24T23:11:15.297Z,83.62
2022-09-24T23:13:44.451Z,83.38
2022-09-24T23:16:14.885Z,83.42
2022-09-24T23:18:43.488Z,83.33
2022-09-24T23:21:13.567Z,83.46
2022-09-24T23:23:40.781Z,83.75
2022-09-24T23:26:16.394Z,83.10
2022-09-24T23:28:48.343Z,83.59
2022-09-24T23:31:15.245Z,83.32
2022-09-24T23:33:42.901Z,83.17
2022-09-24T23:36:12.950Z,83.19
2022-09-24T23:38:40.731Z,83.57
2022-09-24T23:41:09.567Z,83.25
2022-09-24T23:43:37.171Z,83.17
2022-09-24T23:46:04.800Z,83.03
2022-09-24T23:48:32.235Z,83.52
2022-09-24T23:51:00.311Z,83.06
2022-09-24T23:53:27.553Z,82.99
2022-09-24T23:55:55.424Z,83.64
2022-09-24T23:58:24.906Z,83.12
